createdAt,value
2023-02-03T00:00:50.697Z,7.20
2023-02-03T00:03:44.549Z,6.87
2023-02-03T00:06:37.554Z,6.45
2023-02-03T00:09:31.707Z,6.13
2023-02-03T00:12:24.937Z,5.95
2023-02-03T00:15:17.011Z,5.96
2023-02-03T00:18:09.858Z,6.07
2023-02-03T00:21:02.631Z,6.25
2023-02-03T00:23:55.771Z,6.25
2023-02-03T00:26:45.265Z,6.07
2023-02-03T00:29:38.248Z,5.83
2023-02-03T00:32:31.561Z,5.76
2023-02-03T00:35:24.813Z,6.07
2023-02-03T00:38:17.590Z,6.18
2023-02-03T00:41:10.697Z,5.86
2023-02-03T00:44:03.703Z,5.57
2023-02-03T00:46:56.483Z,5.18
2023-02-03T00:49:50.590Z,4.90
2023-02-03T00:52:43.306Z,4.70
2023-02-03T00:55:36.259Z,4.47
2023-02-03T00:58:29.198Z,4.18
2023-02-03T01:01:22.157Z,3.95
2023-02-03T01:04:14.970Z,3.85
2023-02-03T01:07:07.913Z,3.78
2023-02-03T01:10:00.783Z,3.69
2023-02-03T01:12:53.662Z,3.57
2023-02-03T01:15:50.350Z,3.48
2023-02-03T01:18:43.676Z,3.48
2023-02-03T01:21:37.545Z,3.46
2023-02-03T01:24:32.402Z,3.41
2023-02-03T01:27:17.858Z,3.38
2023-02-03T01:30:12.225Z,3.38
2023-02-03T01:33:06.302Z,3.36
2023-02-03T01:36:01.473Z,3.41
2023-02-03T01:38:55.325Z,3.49
2023-02-03T01:41:48.183Z,3.44
2023-02-03T01:44:47.755Z,3.41
2023-02-03T01:47:41.330Z,3.41
2023-02-03T01:50:37.158Z,3.37
2023-02-03T01:53:30.527Z,3.39
2023-02-03T01:56:23.759Z,3.33
2023-02-03T01:59:19.796Z,3.27
2023-02-03T02:02:13.219Z,3.22
2023-02-03T02:05:11.630Z,3.18
2023-02-03T02:08:05.735Z,3.19
2023-02-03T02:10:59.148Z,3.12
2023-02-03T02:13:55.148Z,3.09
2023-02-03T02:16:56.523Z,3.07
2023-02-03T02:20:29.163Z,3.04
2023-02-03T02:23:53.867Z,3.00
2023-02-03T02:27:20.250Z,2.97
2023-02-03T02:30:49.483Z,2.91
2023-02-03T02:33:44.131Z,2.94
2023-02-03T02:36:49.331Z,3.13
2023-02-03T02:39:49.953Z,3.25
2023-02-03T02:42:57.516Z,3.26
2023-02-03T02:45:52.233Z,3.17
2023-02-03T02:48:49.487Z,3.07
2023-02-03T02:51:45.307Z,3.00
2023-02-03T02:54:42.020Z,2.93
2023-02-03T02:57:30.791Z,2.90
2023-02-03T03:00:24.744Z,2.81
2023-02-03T03:03:20.768Z,2.84
2023-02-03T03:06:17.916Z,2.88
2023-02-03T03:09:13.977Z,2.83
2023-02-03T03:12:14.370Z,2.73
2023-02-03T03:15:12.614Z,2.69
2023-02-03T03:18:12.549Z,2.63
2023-02-03T03:21:08.435Z,2.59
2023-02-03T03:24:06.846Z,2.55
2023-02-03T03:27:04.511Z,2.50
2023-02-03T03:30:01.751Z,2.40
2023-02-03T03:32:55.338Z,2.35
2023-02-03T03:35:45.443Z,2.31
2023-02-03T03:38:42.637Z,2.23
2023-02-03T03:41:42.740Z,2.13
2023-02-03T03:44:41.195Z,2.03
2023-02-03T03:47:39.453Z,1.98
2023-02-03T03:50:39.562Z,1.95
2023-02-03T03:53:33.782Z,1.89
2023-02-03T03:56:26.664Z,1.83
2023-02-03T03:59:22.097Z,1.77
2023-02-03T04:02:18.489Z,1.69
2023-02-03T04:05:13.907Z,1.66
2023-02-03T04:08:06.539Z,1.61
2023-02-03T04:10:59.266Z,1.58
2023-02-03T04:13:53.478Z,1.57
2023-02-03T04:16:46.251Z,1.52
2023-02-03T04:19:38.963Z,1.49
2023-02-03T04:22:31.719Z,1.49
2023-02-03T04:25:25.047Z,1.52
2023-02-03T04:28:17.939Z,1.55
2023-02-03T04:31:12.465Z,1.57
2023-02-03T04:33:47.896Z,1.58
2023-02-03T04:36:40.685Z,1.58
2023-02-03T04:39:31.931Z,1.62
2023-02-03T04:42:25.651Z,1.65
2023-02-03T04:45:18.788Z,1.65
2023-02-03T04:48:11.500Z,1.67
2023-02-03T04:51:06.908Z,1.66
2023-02-03T04:53:59.666Z,1.68
2023-02-03T04:56:54.434Z,1.70
2023-02-03T04:59:39.917Z,1.70
2023-02-03T05:02:34.714Z,1.71
2023-02-03T05:05:27.892Z,1.70
2023-02-03T05:08:23.352Z,1.71
2023-02-03T05:11:16.114Z,1.70
2023-02-03T05:14:11.107Z,1.68
2023-02-03T05:17:04.181Z,1.65
2023-02-03T05:19:58.956Z,1.56
2023-02-03T05:22:52.002Z,1.48
2023-02-03T05:25:47.704Z,1.44
2023-02-03T05:28:40.503Z,1.41
2023-02-03T05:31:35.940Z,1.36
2023-02-03T05:34:28.754Z,1.33
2023-02-03T05:37:22.884Z,1.30
2023-02-03T05:40:34.023Z,1.27
2023-02-03T05:43:26.914Z,1.20
2023-02-03T05:46:19.977Z,1.13
2023-02-03T05:49:13.195Z,1.14
2023-02-03T05:51:59.217Z,1.15
2023-02-03T05:54:52.085Z,1.23
2023-02-03T05:57:45.100Z,1.32
2023-02-03T06:00:39.147Z,1.31
2023-02-03T06:03:30.848Z,1.31
2023-02-03T06:06:25.581Z,1.32
2023-02-03T06:09:18.659Z,1.36
2023-02-03T06:12:13.635Z,1.40
2023-02-03T06:15:07.570Z,1.42
2023-02-03T06:18:00.417Z,1.48
2023-02-03T06:20:53.398Z,1.51
2023-02-03T06:23:46.556Z,1.56
2023-02-03T06:26:39.603Z,1.62
2023-02-03T06:29:31.083Z,1.72
2023-02-03T06:32:24.042Z,1.80
2023-02-03T06:35:14.133Z,1.92
2023-02-03T06:37:57.666Z,2.04
2023-02-03T06:40:51.604Z,2.13
2023-02-03T06:43:44.855Z,2.19
2023-02-03T06:46:31.021Z,2.26
2023-02-03T06:49:24.277Z,2.36
2023-02-03T06:52:17.430Z,2.43
2023-02-03T06:55:26.401Z,2.48
2023-02-03T06:58:19.415Z,2.52
2023-02-03T07:01:05.302Z,2.54
2023-02-03T07:03:59.325Z,2.58
2023-02-03T07:06:52.092Z,2.61
2023-02-03T07:09:45.387Z,2.71
2023-02-03T07:12:38.296Z,2.75
2023-02-03T07:15:31.638Z,2.79
2023-02-03T07:21:40.937Z,2.93
2023-02-03T07:24:34.019Z,2.97
2023-02-03T07:27:28.095Z,3.00
2023-02-03T07:30:21.527Z,3.03
2023-02-03T07:33:08.477Z,3.07
2023-02-03T07:36:02.356Z,3.13
2023-02-03T07:38:56.172Z,3.17
2023-02-03T07:41:48.956Z,3.21
2023-02-03T07:44:44.148Z,3.28
2023-02-03T07:47:37.075Z,3.33
2023-02-03T07:50:33.512Z,3.32
2023-02-03T07:53:25.412Z,3.32
2023-02-03T07:56:20.571Z,3.36
2023-02-03T07:59:13.539Z,3.42
2023-02-03T08:02:09.447Z,3.46
2023-02-03T08:05:02.637Z,3.50
2023-02-03T08:07:56.827Z,3.51
2023-02-03T08:10:51.206Z,3.47
2023-02-03T08:13:39.499Z,3.45
2023-02-03T08:16:19.891Z,3.52
2023-02-03T08:19:13.956Z,3.59
2023-02-03T08:22:07.115Z,3.68
2023-02-03T08:25:00.055Z,3.83
2023-02-03T08:27:54.195Z,4.06
2023-02-03T08:30:47.159Z,4.26
2023-02-03T08:33:35.263Z,4.39
2023-02-03T08:36:28.194Z,4.45
2023-02-03T08:39:21.396Z,4.50
2023-02-03T08:42:14.814Z,4.49
2023-02-03T08:45:09.018Z,4.41
2023-02-03T08:48:02.056Z,4.33
2023-02-03T08:50:54.938Z,4.47
2023-02-03T08:53:47.923Z,4.60
2023-02-03T08:56:30.935Z,4.69
2023-02-03T08:59:23.839Z,4.81
2023-02-03T09:02:19.655Z,4.85
2023-02-03T09:05:14.250Z,4.79
2023-02-03T09:08:07.456Z,4.37
2023-02-03T09:11:00.486Z,3.94
2023-02-03T09:13:53.977Z,3.67
2023-02-03T09:16:49.677Z,3.46
2023-02-03T09:19:42.673Z,3.30
2023-02-03T09:22:35.585Z,3.17
2023-02-03T09:25:18.920Z,3.04
2023-02-03T09:28:11.728Z,3.32
2023-02-03T09:31:03.377Z,3.94
2023-02-03T09:33:56.208Z,4.35
2023-02-03T09:36:51.426Z,4.57
2023-02-03T09:39:44.568Z,4.73
2023-02-03T09:43:03.484Z,4.83
2023-02-03T09:46:05.268Z,4.74
2023-02-03T09:48:49.489Z,4.43
2023-02-03T09:51:51.202Z,4.19
2023-02-03T09:54:49.563Z,3.97
2023-02-03T09:57:51.831Z,3.84
2023-02-03T10:00:48.680Z,3.79
2023-02-03T10:03:47.722Z,3.76
2023-02-03T10:06:43.809Z,3.77
2023-02-03T10:09:40.964Z,3.83
2023-02-03T10:12:53.421Z,3.92
2023-02-03T10:16:04.422Z,3.93
2023-02-03T10:18:54.803Z,3.89
2023-02-03T10:21:51.669Z,3.84
2023-02-03T10:25:03.753Z,4.42
2023-02-03T10:28:00.133Z,6.43
2023-02-03T10:30:56.973Z,7.41
2023-02-03T10:33:53.904Z,7.78
2023-02-03T10:36:57.800Z,7.07
2023-02-03T10:39:53.582Z,6.30
2023-02-03T10:43:06.083Z,5.72
2023-02-03T10:45:51.336Z,5.25
2023-02-03T10:48:45.480Z,4.97
2023-02-03T10:51:49.822Z,4.72
2023-02-03T10:54:38.446Z,4.58
2023-02-03T10:57:35.231Z,4.58
2023-02-03T11:00:32.486Z,4.59
2023-02-03T11:03:27.928Z,4.61
2023-02-03T11:06:21.051Z,4.63
2023-02-03T11:09:39.929Z,4.58
2023-02-03T11:12:25.605Z,4.59
2023-02-03T11:15:21.031Z,4.59
2023-02-03T11:18:45.287Z,4.62
2023-02-03T11:21:34.017Z,4.72
2023-02-03T11:24:29.608Z,4.87
2023-02-03T11:27:25.096Z,5.01
2023-02-03T11:30:20.866Z,5.15
2023-02-03T11:33:21.972Z,5.24
2023-02-03T11:36:15.441Z,5.30
2023-02-03T11:39:21.309Z,5.29
2023-02-03T11:42:26.324Z,5.23
2023-02-03T11:45:26.479Z,5.21
2023-02-03T11:48:29.793Z,5.27
2023-02-03T11:51:34.795Z,5.33
2023-02-03T11:54:34.949Z,5.40
2023-02-03T11:57:40.065Z,5.34
2023-02-03T12:00:40.831Z,5.22
2023-02-03T12:03:59.618Z,5.08
2023-02-03T12:07:19.442Z,5.00
2023-02-03T12:10:28.148Z,4.94
2023-02-03T12:14:01.259Z,4.87
2023-02-03T12:17:19.353Z,4.77
2023-02-03T12:20:27.938Z,4.78
2023-02-03T12:23:31.587Z,4.85
2023-02-03T12:26:27.942Z,4.91
2023-02-03T12:29:27.033Z,4.94
2023-02-03T12:32:28.004Z,4.96
2023-02-03T12:35:27.216Z,5.00
2023-02-03T12:38:27.082Z,4.99
2023-02-03T12:41:19.599Z,4.95
2023-02-03T12:44:27.310Z,4.96
2023-02-03T12:47:29.634Z,4.99
2023-02-03T12:50:30.668Z,5.01
2023-02-03T12:53:30.566Z,5.01
2023-02-03T12:56:28.152Z,5.00
2023-02-03T12:59:24.636Z,4.94
2023-02-03T13:02:26.352Z,4.82
2023-02-03T13:05:26.052Z,4.75
2023-02-03T13:08:25.301Z,4.73
2023-02-03T13:11:25.658Z,4.66
2023-02-03T13:14:23.917Z,4.56
2023-02-03T13:17:23.736Z,4.48
2023-02-03T13:20:20.979Z,4.39
2023-02-03T13:23:07.116Z,4.34
2023-02-03T13:26:17.987Z,4.35
2023-02-03T13:29:31.371Z,4.36
2023-02-03T13:32:40.064Z,4.28
2023-02-03T13:35:48.984Z,4.17
2023-02-03T13:39:04.244Z,4.07
2023-02-03T13:42:09.578Z,3.96
2023-02-03T13:45:11.524Z,3.83
2023-02-03T13:48:15.569Z,3.71
2023-02-03T13:51:15.883Z,3.63
2023-02-03T13:54:17.519Z,3.53
2023-02-03T13:57:35.251Z,3.40
2023-02-03T14:01:04.072Z,3.29
2023-02-03T14:03:57.280Z,3.19
2023-02-03T14:07:27.138Z,3.10
2023-02-03T14:10:22.233Z,3.02
2023-02-03T14:13:23.737Z,2.96
2023-02-03T14:16:26.000Z,2.89
2023-02-03T14:19:52.233Z,2.84
2023-02-03T14:22:46.559Z,2.76
2023-02-03T14:25:43.584Z,2.69
2023-02-03T14:28:45.003Z,2.59
2023-02-03T14:31:56.931Z,2.52
2023-02-03T14:34:51.779Z,2.43
2023-02-03T14:37:53.163Z,2.37
2023-02-03T14:40:52.490Z,2.31
2023-02-03T14:43:53.288Z,2.23
2023-02-03T14:47:08.423Z,2.52
2023-02-03T14:50:23.218Z,3.15
2023-02-03T14:53:38.477Z,3.34
2023-02-03T14:56:57.239Z,3.39
2023-02-03T14:59:51.714Z,3.40
2023-02-03T15:03:25.439Z,3.41
2023-02-03T15:06:41.243Z,3.32
2023-02-03T15:09:39.996Z,3.25
2023-02-03T15:12:37.704Z,3.14
2023-02-03T15:15:27.908Z,3.04
2023-02-03T15:18:30.140Z,2.93
2023-02-03T15:21:23.355Z,2.79
2023-02-03T15:24:22.717Z,2.72
2023-02-03T15:27:24.441Z,2.65
2023-02-03T15:30:23.035Z,2.61
2023-02-03T15:33:21.950Z,2.57
2023-02-03T15:36:20.826Z,2.51
2023-02-03T15:39:26.825Z,2.47
2023-02-03T15:42:26.518Z,2.39
2023-02-03T15:45:28.558Z,2.32
2023-02-03T15:49:23.894Z,2.27
2023-02-03T15:51:48.938Z,2.30
2023-02-03T15:54:46.550Z,2.29
2023-02-03T15:57:39.700Z,2.24
2023-02-03T16:00:53.131Z,2.20
2023-02-03T16:03:49.991Z,2.09
2023-02-03T16:06:45.153Z,2.01
2023-02-03T16:09:42.615Z,1.96
2023-02-03T16:12:37.032Z,1.97
2023-02-03T16:15:28.892Z,2.00
2023-02-03T16:18:07.658Z,1.98
2023-02-03T16:21:00.416Z,1.94
2023-02-03T16:24:17.355Z,1.93
2023-02-03T16:26:45.544Z,1.91
2023-02-03T16:29:54.781Z,1.89
2023-02-03T16:33:22.247Z,1.85
2023-02-03T16:36:12.530Z,1.81
2023-02-03T16:39:07.631Z,1.79
2023-02-03T16:42:01.114Z,1.78
2023-02-03T16:44:57.069Z,1.78
2023-02-03T16:47:59.403Z,1.79
2023-02-03T16:50:53.806Z,1.77
2023-02-03T16:53:41.562Z,1.76
2023-02-03T16:56:24.145Z,1.77
2023-02-03T16:59:17.471Z,1.76
2023-02-03T17:02:02.996Z,1.75
2023-02-03T17:04:49.755Z,1.73
2023-02-03T17:07:37.085Z,1.73
2023-02-03T17:10:29.888Z,1.73
2023-02-03T17:13:12.973Z,1.74
2023-02-03T17:15:59.671Z,1.73
2023-02-03T17:18:52.835Z,1.72
2023-02-03T17:21:40.594Z,1.72
2023-02-03T17:24:33.389Z,1.76
2023-02-03T17:27:26.386Z,1.78
2023-02-03T17:30:19.475Z,1.78
2023-02-03T17:33:13.801Z,1.80
2023-02-03T17:36:09.353Z,1.79
2023-02-03T17:54:34.556Z,1.88
2023-02-03T17:57:28.404Z,1.89
2023-02-03T18:00:22.039Z,1.90
2023-02-03T18:03:16.673Z,1.91
2023-02-03T18:06:10.125Z,1.92
2023-02-03T18:09:05.321Z,1.92
2023-02-03T18:11:58.141Z,1.91
2023-02-03T18:14:51.622Z,1.92
2023-02-03T18:17:44.365Z,1.92
2023-02-03T18:20:37.473Z,1.94
2023-02-03T18:23:32.120Z,1.96
2023-02-03T18:26:25.623Z,1.96
2023-02-03T18:29:19.023Z,1.96
2023-02-03T18:32:15.130Z,1.97
2023-02-03T18:35:13.078Z,1.96
2023-02-03T18:38:07.711Z,1.97
2023-02-03T18:41:00.717Z,1.96
2023-02-03T18:43:49.532Z,1.97
2023-02-03T18:46:41.209Z,1.96
2023-02-03T18:49:36.786Z,1.97
2023-02-03T18:52:29.623Z,1.99
2023-02-03T18:55:23.954Z,2.03
2023-02-03T18:58:07.581Z,2.06
2023-02-03T19:01:02.530Z,2.08
2023-02-03T19:03:47.813Z,2.09
2023-02-03T19:06:45.557Z,2.12
2023-02-03T19:09:39.837Z,2.14
2023-02-03T19:12:22.772Z,2.15
2023-02-03T19:15:15.685Z,2.14
2023-02-03T19:18:08.821Z,2.15
2023-02-03T19:21:01.857Z,2.18
2023-02-03T19:23:54.726Z,2.23
2023-02-03T19:26:47.487Z,2.25
2023-02-03T19:29:40.520Z,2.26
2023-02-03T19:32:33.760Z,2.27
2023-02-03T19:35:20.725Z,2.29
2023-02-03T19:38:13.450Z,2.31
2023-02-03T19:40:58.608Z,2.35
2023-02-03T19:43:41.329Z,2.40
2023-02-03T19:46:37.176Z,2.45
2023-02-03T19:49:30.038Z,2.50
2023-02-03T19:52:12.649Z,2.55
2023-02-03T19:55:05.580Z,2.57
2023-02-03T19:58:00.033Z,2.62
2023-02-03T20:00:41.757Z,2.70
2023-02-03T20:03:28.234Z,2.79
2023-02-03T20:06:13.784Z,2.87
2023-02-03T20:09:07.127Z,2.95
2023-02-03T20:11:52.671Z,2.99
2023-02-03T20:14:36.931Z,3.06
2023-02-03T20:17:19.554Z,3.13
2023-02-03T20:20:13.309Z,3.16
2023-02-03T20:23:06.263Z,3.20
2023-02-03T20:25:54.880Z,3.26
2023-02-03T20:28:47.726Z,3.35
2023-02-03T20:31:40.768Z,3.41
2023-02-03T20:34:34.811Z,3.46
2023-02-03T20:37:27.714Z,3.51
2023-02-03T20:40:17.231Z,3.54
2023-02-03T20:43:17.216Z,3.58
2023-02-03T20:46:14.540Z,3.59
2023-02-03T20:49:07.415Z,3.59
2023-02-03T20:51:53.101Z,3.59
2023-02-03T20:54:46.302Z,3.62
2023-02-03T20:57:39.117Z,3.66
2023-02-03T21:00:25.168Z,3.67
2023-02-03T21:03:36.184Z,3.68
2023-02-03T21:06:29.715Z,3.69
2023-02-03T21:09:27.245Z,3.69
2023-02-03T21:12:20.316Z,3.69
2023-02-03T21:15:21.991Z,3.68
2023-02-03T21:18:42.599Z,3.66
2023-02-03T21:21:34.912Z,3.65
2023-02-03T21:24:29.530Z,3.64
2023-02-03T21:27:31.251Z,3.63
2023-02-03T21:30:30.948Z,3.62
2023-02-03T21:33:41.962Z,3.61
2023-02-03T21:36:39.030Z,3.63
2023-02-03T21:39:35.134Z,3.63
2023-02-03T21:42:46.321Z,3.63
2023-02-03T21:45:42.915Z,3.64
2023-02-03T21:48:42.123Z,3.65
2023-02-03T21:51:37.132Z,3.67
2023-02-03T21:54:37.937Z,3.68
2023-02-03T21:57:20.211Z,3.69
2023-02-03T22:00:43.115Z,3.68
2023-02-03T22:03:40.765Z,3.66
2023-02-03T22:06:43.015Z,3.64
2023-02-03T22:09:37.232Z,3.63
2023-02-03T22:12:17.210Z,3.64
2023-02-03T22:15:12.369Z,3.64
2023-02-03T22:18:05.431Z,3.64
2023-02-03T22:20:52.912Z,3.67
2023-02-03T22:23:46.497Z,3.67
2023-02-03T22:26:33.756Z,3.68
2023-02-03T22:29:19.141Z,3.69
2023-02-03T22:32:11.855Z,3.69
2023-02-03T22:35:05.281Z,3.68
2023-02-03T22:37:58.071Z,3.68
2023-02-03T22:40:54.304Z,3.69
2023-02-03T22:43:40.069Z,3.69
2023-02-03T22:46:33.728Z,3.69
2023-02-03T22:49:26.507Z,3.68
2023-02-03T22:52:11.725Z,3.67
2023-02-03T22:55:05.100Z,3.68
2023-02-03T22:57:58.601Z,3.71
2023-02-03T23:00:45.361Z,3.73
2023-02-03T23:03:38.156Z,3.75
2023-02-03T23:06:30.918Z,3.78
2023-02-03T23:09:17.207Z,3.81
2023-02-03T23:12:11.758Z,3.83
2023-02-03T23:15:04.763Z,3.85
2023-02-03T23:17:57.650Z,3.87
2023-02-03T23:20:50.397Z,3.87
2023-02-03T23:23:43.246Z,3.86
2023-02-03T23:26:36.232Z,3.86
2023-02-03T23:29:29.437Z,3.85
2023-02-03T23:32:22.211Z,3.86
2023-02-03T23:35:32.336Z,3.86
2023-02-03T23:38:25.102Z,3.86
2023-02-03T23:41:16.874Z,3.86
2023-02-03T23:44:11.041Z,3.87
2023-02-03T23:47:03.899Z,3.86
2023-02-03T23:49:56.730Z,3.85
2023-02-03T23:52:49.466Z,3.84
2023-02-03T23:55:42.269Z,3.83
2023-02-03T23:58:35.049Z,3.82
